Home   Weather   USA   New Port Richey   Past weeks
Flag for USA

Past Weather in New Port Richey, Florida, USA — Yesterday and Last 2 Weeks

Currently: 79 °F. Clear. (Weather station: Clearwater Air Park, USA). See more current weather

Past Weather in New Port Richey — Graph

°F

New Port Richey Temperature Yesterday

Maximum temperature yesterday: 90 °F (at 1:15 pm)
Minimum temperature yesterday: 75 °F (at 5:15 am)
Average temperature yesterday: 82 °F

High & Low Weather Summary for the Past Weeks

 TemperatureHumidityPressure
High90 °F (May 17, 2:15 pm)94% (May 15, 6:35 am)30.04 "Hg (May 15, 6:35 am)
Low70 °F (May 12, 2:55 am)36% (May 23, 1:15 pm)29.80 "Hg (May 15, 5:35 pm)
Average80 °F70%29.92 "Hg
* Reported May 10 8:15 pm — May 25 8:55 pm, New Port Richey. Weather by CustomWeather, © 2024

Note: Actual official high and low records may vary slightly from our data, if they occured in-between our weather recording intervals... More about our weather records

New Port Richey Weather History for the Previous 24 Hours

Scroll right to see more
 ConditionsComfort  
Time TempWeatherWind HumidityBarometerVisibility
8:55 pm
Sat, May 25
79 °FClear.No wind70%29.93 "Hg10 mi
8:35 pm81 °FClear.No wind66%29.93 "Hg10 mi
8:15 pm81 °FSunny.No wind66%29.93 "Hg10 mi
7:55 pm81 °FSunny.7 mph66%29.93 "Hg10 mi
7:35 pm81 °FSunny.10 mph66%29.93 "Hg10 mi
7:15 pm82 °FSunny.7 mph58%29.93 "Hg10 mi
6:35 pm82 °FSunny.9 mph62%29.93 "Hg10 mi
6:15 pm82 °FSunny.10 mph58%29.93 "Hg10 mi
5:55 pm84 °FSunny.10 mph51%29.92 "Hg10 mi
5:35 pm86 °FSunny.9 mph55%29.93 "Hg10 mi
5:15 pm86 °FSunny.13 mph55%29.92 "Hg10 mi
4:55 pm86 °FSunny.9 mph55%29.93 "Hg10 mi
4:35 pm84 °FSunny.10 mph58%29.93 "Hg10 mi
3:55 pm86 °FSunny.10 mph55%29.94 "Hg10 mi
3:15 pm86 °FSunny.9 mph59%29.94 "Hg10 mi
2:55 pm86 °FSunny.10 mph59%29.94 "Hg10 mi
2:35 pm86 °FSunny.6 mph59%29.94 "Hg10 mi
2:15 pm86 °FSunny.12 mph59%29.95 "Hg10 mi
1:55 pm86 °FSunny.10 mph59%29.96 "Hg10 mi
1:35 pm86 °FSunny.9 mph59%29.96 "Hg10 mi
1:15 pm86 °FSunny.10 mph62%29.97 "Hg10 mi
12:35 pm86 °FSunny.10 mph59%29.98 "Hg10 mi
12:15 pm86 °FSunny.7 mph59%29.98 "Hg10 mi
11:55 am86 °FSunny.No wind55%29.97 "Hg10 mi
11:35 am86 °FSunny.No wind55%29.97 "Hg10 mi
11:15 am86 °FSunny.No wind55%29.97 "Hg10 mi
10:55 am86 °FSunny.6 mph55%29.96 "Hg10 mi
10:35 am86 °FSunny.6 mph55%29.96 "Hg10 mi
10:15 am86 °FSunny.5 mph55%29.96 "Hg10 mi
9:35 am84 °FSunny.No wind51%29.96 "Hg10 mi
9:15 am82 °FSunny.No wind55%29.96 "Hg10 mi
8:35 am81 °FSunny.3 mph70%29.95 "Hg10 mi
8:15 am81 °FSunny.No wind74%29.94 "Hg10 mi
7:35 am77 °FSunny.No wind83%29.93 "Hg10 mi
7:15 am75 °FSunny.No wind89%29.93 "Hg10 mi
6:55 am73 °FSunny.No wind94%29.92 "Hg10 mi
6:35 am73 °FClear.No wind94%29.93 "Hg10 mi
6:15 am77 °FClear.No wind89%29.93 "Hg10 mi
5:55 am75 °FPassing clouds.No wind94%29.93 "Hg10 mi
5:35 am77 °FClear.No wind89%29.93 "Hg10 mi
5:15 am77 °FPassing clouds.No wind89%29.93 "Hg10 mi
4:35 am77 °FOvercast.No wind89%29.92 "Hg10 mi
4:15 am77 °FPassing clouds.No wind89%29.92 "Hg10 mi
3:35 am79 °FPartly cloudy.No wind84%29.92 "Hg10 mi
3:15 am79 °FPartly cloudy.No wind84%29.92 "Hg10 mi
2:55 am79 °FPassing clouds.No wind84%29.93 "Hg10 mi
2:35 am79 °FPassing clouds.No wind84%29.93 "Hg10 mi
2:15 am79 °FOvercast.No wind84%29.93 "Hg10 mi
1:55 am79 °FMostly cloudy.No wind84%29.94 "Hg10 mi
1:35 am79 °FPassing clouds.No wind84%29.93 "Hg10 mi
1:15 am79 °FPassing clouds.5 mph84%29.94 "Hg10 mi
12:55 am79 °FPassing clouds.No wind84%29.94 "Hg10 mi
12:35 am79 °FPassing clouds.No wind84%29.94 "Hg10 mi
12:15 am79 °FPassing clouds.No wind84%29.94 "Hg10 mi
11:55 pm
Fri, May 24
79 °FClear.No wind84%29.93 "Hg10 mi
11:35 pm79 °FClear.No wind84%29.94 "Hg10 mi
11:15 pm79 °FPassing clouds.No wind84%29.94 "Hg10 mi
10:55 pm79 °FPassing clouds.3 mph79%29.95 "Hg10 mi
10:35 pm81 °FPassing clouds.No wind74%29.95 "Hg10 mi
Weather by CustomWeather, © 2024

See weather overview